ENT4091 EPKT-HEMA
Flight info
| Callsign | ENT4091 |
|---|---|
| Flight time | 4h 0m |
| Altitude | 37000 |
| Route | REGTO DCT RAZEC DCT KEKED DCT BADOR DCT DENAK DCT RIXEN UL620 IST UT35 BABSA/N0447F390 UT35 AYT UA16 TOMBI DCT PEDER DCT MAROS M855 RASDA A16 CVO L315 SOBEL V730 MAK |
| Aircraft | B738/M-DFGHIJ1LORVWXY/EB1 |
Departure
| Time | 2026-04-22 08:02 |
|---|---|
| Airport | Katowice Wojciech Korfanty International Airport (EPKT) |
Arrival
| Time | 2026-04-22 12:03 |
|---|---|
| Airport | Marsa Alam International Airport (HEMA) |
| Time | Latitude | Longitude | Altitude | Speed | Heading |
|---|---|---|---|---|---|
| 2026-04-22 07:10 | 50.47150 | 19.07828 | 992 ft | 0 kts | 180° |
| 2026-04-22 07:51 | 50.47151 | 19.07828 | 992 ft | 0 kts | 180° |
| 2026-04-22 07:52 | 50.47165 | 19.07828 | 992 ft | 2 kts | 180° |
| 2026-04-22 07:52 | 50.47180 | 19.07828 | 992 ft | 2 kts | 180° |
| 2026-04-22 07:52 | 50.47195 | 19.07828 | 992 ft | 2 kts | 180° |
| 2026-04-22 07:52 | 50.47208 | 19.07828 | 991 ft | 2 kts | 171° |
| 2026-04-22 07:53 | 50.47222 | 19.07818 | 991 ft | 2 kts | 141° |
| 2026-04-22 07:53 | 50.47232 | 19.07800 | 991 ft | 2 kts | 116° |
| 2026-04-22 07:53 | 50.47236 | 19.07779 | 991 ft | 0 kts | 92° |
| 2026-04-22 07:53 | 50.47235 | 19.07758 | 991 ft | 2 kts | 86° |
| 2026-04-22 07:54 | 50.47235 | 19.07735 | 991 ft | 2 kts | 90° |
| 2026-04-22 07:54 | 50.47235 | 19.07726 | 991 ft | 0 kts | 89° |
| 2026-04-22 07:56 | 50.47235 | 19.07727 | 991 ft | 0 kts | 89° |
| 2026-04-22 07:56 | 50.47236 | 19.07751 | 991 ft | 4 kts | 89° |
| 2026-04-22 07:57 | 50.47236 | 19.07855 | 991 ft | 14 kts | 90° |
| 2026-04-22 07:57 | 50.47235 | 19.08007 | 992 ft | 13 kts | 90° |
| 2026-04-22 07:57 | 50.47234 | 19.08149 | 992 ft | 12 kts | 90° |
| 2026-04-22 07:57 | 50.47234 | 19.08280 | 993 ft | 12 kts | 90° |
| 2026-04-22 07:58 | 50.47234 | 19.08418 | 993 ft | 13 kts | 90° |
| 2026-04-22 07:58 | 50.47233 | 19.08585 | 994 ft | 17 kts | 90° |
| 2026-04-22 07:58 | 50.47233 | 19.08774 | 996 ft | 16 kts | 89° |
| 2026-04-22 07:58 | 50.47232 | 19.08942 | 997 ft | 14 kts | 90° |
| 2026-04-22 07:59 | 50.47232 | 19.09087 | 999 ft | 12 kts | 90° |
| 2026-04-22 07:59 | 50.47232 | 19.09214 | 1001 ft | 11 kts | 90° |
| 2026-04-22 07:59 | 50.47231 | 19.09351 | 1002 ft | 13 kts | 90° |
| 2026-04-22 07:59 | 50.47230 | 19.09509 | 1004 ft | 15 kts | 90° |
| 2026-04-22 08:00 | 50.47230 | 19.09680 | 1006 ft | 16 kts | 90° |
| 2026-04-22 08:00 | 50.47230 | 19.09863 | 1009 ft | 17 kts | 90° |
| 2026-04-22 08:00 | 50.47250 | 19.10049 | 1011 ft | 17 kts | 53° |
| 2026-04-22 08:00 | 50.47322 | 19.10196 | 1011 ft | 17 kts | 52° |
| 2026-04-22 08:01 | 50.47401 | 19.10355 | 1011 ft | 19 kts | 52° |
| 2026-04-22 08:01 | 50.47505 | 19.10449 | 1010 ft | 15 kts | 360° |
| 2026-04-22 08:01 | 50.47591 | 19.10441 | 1009 ft | 6 kts | 312° |
| 2026-04-22 08:01 | 50.47595 | 19.10350 | 1009 ft | 11 kts | 270° |
| 2026-04-22 08:02 | 50.47597 | 19.09922 | 1005 ft | 72 kts | 270° |
| 2026-04-22 08:02 | 50.47598 | 19.08812 | 993 ft | 129 kts | 270° |
| 2026-04-22 08:02 | 50.47598 | 19.07165 | 1084 ft | 164 kts | 271° |
| 2026-04-22 08:02 | 50.47600 | 19.05380 | 1639 ft | 167 kts | 270° |
| 2026-04-22 08:03 | 50.47600 | 19.03586 | 2217 ft | 167 kts | 273° |
| 2026-04-22 08:03 | 50.47606 | 19.01649 | 2535 ft | 181 kts | 273° |
| 2026-04-22 08:03 | 50.47611 | 18.99611 | 2873 ft | 194 kts | 273° |
| 2026-04-22 08:03 | 50.47487 | 18.97425 | 3204 ft | 210 kts | 258° |
| 2026-04-22 08:04 | 50.46715 | 18.95334 | 3439 ft | 237 kts | 225° |
| 2026-04-22 08:04 | 50.45245 | 18.94021 | 3840 ft | 253 kts | 197° |
| 2026-04-22 08:04 | 50.43467 | 18.93647 | 4339 ft | 263 kts | 179° |
| 2026-04-22 08:04 | 50.41645 | 18.94264 | 4733 ft | 274 kts | 148° |
| 2026-04-22 08:05 | 50.40198 | 18.96170 | 5379 ft | 273 kts | 129° |
| 2026-04-22 08:05 | 50.38999 | 18.98442 | 6004 ft | 276 kts | 126° |
| 2026-04-22 08:05 | 50.37801 | 19.00778 | 6685 ft | 278 kts | 126° |
| 2026-04-22 08:05 | 50.36548 | 19.03109 | 7369 ft | 280 kts | 128° |
| 2026-04-22 08:06 | 50.35251 | 19.05427 | 8028 ft | 283 kts | 128° |
| 2026-04-22 08:06 | 50.33946 | 19.07714 | 8684 ft | 285 kts | 128° |
| 2026-04-22 08:06 | 50.32620 | 19.10024 | 9327 ft | 287 kts | 128° |
| 2026-04-22 08:06 | 50.31285 | 19.12348 | 9959 ft | 289 kts | 128° |
| 2026-04-22 08:07 | 50.29943 | 19.14689 | 10534 ft | 294 kts | 127° |
| 2026-04-22 08:07 | 50.28536 | 19.17152 | 10829 ft | 309 kts | 127° |
| 2026-04-22 08:07 | 50.27074 | 19.19707 | 11147 ft | 323 kts | 128° |
| 2026-04-22 08:07 | 50.25539 | 19.22388 | 11438 ft | 338 kts | 128° |
| 2026-04-22 08:08 | 50.23954 | 19.25148 | 11715 ft | 352 kts | 128° |
| 2026-04-22 08:08 | 50.22283 | 19.28048 | 12253 ft | 359 kts | 128° |
| 2026-04-22 08:08 | 50.20608 | 19.30949 | 12863 ft | 364 kts | 128° |
| 2026-04-22 08:08 | 50.18911 | 19.33885 | 13493 ft | 368 kts | 128° |
| 2026-04-22 08:09 | 50.17198 | 19.36846 | 14154 ft | 371 kts | 128° |
| 2026-04-22 08:09 | 50.15470 | 19.39831 | 14839 ft | 374 kts | 128° |
| 2026-04-22 08:09 | 50.13730 | 19.42835 | 15521 ft | 376 kts | 128° |
| 2026-04-22 08:09 | 50.11955 | 19.45895 | 16181 ft | 380 kts | 128° |
| 2026-04-22 08:10 | 50.10190 | 19.48938 | 16839 ft | 382 kts | 128° |
| 2026-04-22 08:10 | 50.08403 | 19.52017 | 17514 ft | 384 kts | 127° |
| 2026-04-22 08:10 | 50.06630 | 19.55066 | 18110 ft | 388 kts | 128° |
| 2026-04-22 08:10 | 50.04802 | 19.58207 | 18705 ft | 391 kts | 128° |
| 2026-04-22 08:11 | 50.02959 | 19.61368 | 19301 ft | 395 kts | 128° |
| 2026-04-22 08:11 | 50.01136 | 19.64491 | 19869 ft | 398 kts | 128° |
| 2026-04-22 08:11 | 49.99240 | 19.67736 | 20477 ft | 401 kts | 128° |
| 2026-04-22 08:11 | 49.97377 | 19.70921 | 21024 ft | 404 kts | 128° |
| 2026-04-22 08:12 | 49.95472 | 19.74172 | 21581 ft | 407 kts | 128° |
| 2026-04-22 08:12 | 49.93568 | 19.77417 | 22137 ft | 410 kts | 128° |
| 2026-04-22 08:12 | 49.91653 | 19.80677 | 22668 ft | 413 kts | 128° |
| 2026-04-22 08:12 | 49.89693 | 19.84008 | 23200 ft | 415 kts | 128° |
| 2026-04-22 08:13 | 49.87729 | 19.87345 | 23697 ft | 418 kts | 128° |
| 2026-04-22 08:13 | 49.85764 | 19.90676 | 24182 ft | 421 kts | 128° |
| 2026-04-22 08:13 | 49.83792 | 19.94017 | 24669 ft | 423 kts | 128° |
| 2026-04-22 08:13 | 49.81806 | 19.97376 | 25106 ft | 427 kts | 128° |
| 2026-04-22 08:14 | 49.79769 | 20.00819 | 25564 ft | 430 kts | 128° |
| 2026-04-22 08:14 | 49.77728 | 20.04263 | 25977 ft | 433 kts | 129° |
| 2026-04-22 08:14 | 49.75672 | 20.07726 | 26394 ft | 436 kts | 129° |
| 2026-04-22 08:14 | 49.73614 | 20.11189 | 26798 ft | 439 kts | 129° |
| 2026-04-22 08:15 | 49.71515 | 20.14715 | 27183 ft | 442 kts | 129° |
| 2026-04-22 08:15 | 49.69402 | 20.18259 | 27586 ft | 445 kts | 129° |
| 2026-04-22 08:15 | 49.67301 | 20.21777 | 27975 ft | 447 kts | 129° |
| 2026-04-22 08:15 | 49.65201 | 20.25289 | 28370 ft | 449 kts | 129° |
| 2026-04-22 08:16 | 49.63059 | 20.28866 | 28707 ft | 452 kts | 129° |
| 2026-04-22 08:16 | 49.60917 | 20.32440 | 29100 ft | 454 kts | 129° |
| 2026-04-22 08:16 | 49.58801 | 20.35963 | 29662 ft | 451 kts | 129° |
| 2026-04-22 08:16 | 49.56652 | 20.39534 | 30164 ft | 449 kts | 129° |
| 2026-04-22 08:17 | 49.54512 | 20.43086 | 30555 ft | 450 kts | 129° |
| 2026-04-22 08:17 | 49.52385 | 20.46614 | 30970 ft | 449 kts | 129° |
| 2026-04-22 08:17 | 49.50286 | 20.50090 | 31315 ft | 449 kts | 129° |
| 2026-04-22 08:17 | 49.48149 | 20.53625 | 31580 ft | 449 kts | 129° |
| 2026-04-22 08:18 | 49.46041 | 20.57107 | 31846 ft | 449 kts | 129° |
| 2026-04-22 08:18 | 49.43918 | 20.60609 | 32109 ft | 449 kts | 129° |
| 2026-04-22 08:18 | 49.41770 | 20.64149 | 32357 ft | 450 kts | 130° |
| 2026-04-22 08:18 | 49.39645 | 20.67632 | 32583 ft | 450 kts | 131° |
| 2026-04-22 08:19 | 49.37452 | 20.71077 | 32802 ft | 452 kts | 133° |
| 2026-04-22 08:19 | 49.35233 | 20.74431 | 33044 ft | 452 kts | 133° |
| 2026-04-22 08:19 | 49.32968 | 20.77792 | 33264 ft | 452 kts | 134° |
| 2026-04-22 08:19 | 49.30693 | 20.81143 | 33469 ft | 453 kts | 134° |
| 2026-04-22 08:20 | 49.28432 | 20.84472 | 33678 ft | 453 kts | 134° |
| 2026-04-22 08:20 | 49.26181 | 20.87787 | 33889 ft | 452 kts | 134° |
| 2026-04-22 08:20 | 49.23928 | 20.91111 | 34110 ft | 452 kts | 134° |
| 2026-04-22 08:20 | 49.21673 | 20.94443 | 34338 ft | 451 kts | 134° |
| 2026-04-22 08:21 | 49.19430 | 20.97762 | 34557 ft | 451 kts | 133° |
| 2026-04-22 08:21 | 49.17170 | 21.01106 | 34744 ft | 452 kts | 133° |
| 2026-04-22 08:21 | 49.14889 | 21.04392 | 34926 ft | 454 kts | 136° |
| 2026-04-22 08:21 | 49.12415 | 21.07395 | 35109 ft | 456 kts | 142° |
| 2026-04-22 08:22 | 49.09738 | 21.09991 | 35296 ft | 458 kts | 149° |
| 2026-04-22 08:22 | 49.06859 | 21.12165 | 35498 ft | 459 kts | 155° |
| 2026-04-22 08:22 | 49.03889 | 21.13841 | 35686 ft | 460 kts | 161° |
| 2026-04-22 08:22 | 49.00788 | 21.15052 | 35878 ft | 461 kts | 167° |
| 2026-04-22 08:23 | 48.97609 | 21.15874 | 36074 ft | 461 kts | 171° |
| 2026-04-22 08:23 | 48.94437 | 21.16543 | 36271 ft | 461 kts | 171° |
| 2026-04-22 08:23 | 48.91301 | 21.17200 | 36449 ft | 461 kts | 171° |
| 2026-04-22 08:23 | 48.88094 | 21.17932 | 36615 ft | 461 kts | 170° |
| 2026-04-22 08:24 | 48.84961 | 21.18723 | 36758 ft | 461 kts | 169° |
| 2026-04-22 08:24 | 48.81773 | 21.19601 | 36869 ft | 462 kts | 168° |
| 2026-04-22 08:24 | 48.78655 | 21.20519 | 37027 ft | 462 kts | 167° |
| 2026-04-22 08:24 | 48.75509 | 21.21490 | 37119 ft | 462 kts | 167° |
| 2026-04-22 08:25 | 48.69204 | 21.23521 | 37126 ft | 464 kts | 167° |
| 2026-04-22 08:25 | 48.62955 | 21.25591 | 37128 ft | 461 kts | 166° |
| 2026-04-22 08:26 | 48.56670 | 21.27712 | 37125 ft | 461 kts | 165° |
| 2026-04-22 08:26 | 48.50614 | 21.30673 | 37120 ft | 460 kts | 154° |
| 2026-04-22 08:27 | 48.44959 | 21.35119 | 37118 ft | 460 kts | 148° |
| 2026-04-22 08:27 | 48.39426 | 21.40069 | 37114 ft | 461 kts | 147° |
| 2026-04-22 08:28 | 48.33940 | 21.45033 | 37112 ft | 461 kts | 148° |
| 2026-04-22 08:28 | 48.28457 | 21.49914 | 37109 ft | 459 kts | 148° |
| 2026-04-22 08:29 | 48.22946 | 21.54749 | 37111 ft | 460 kts | 148° |
| 2026-04-22 08:29 | 48.17446 | 21.59532 | 37112 ft | 460 kts | 148° |
| 2026-04-22 08:30 | 48.11905 | 21.64325 | 37112 ft | 460 kts | 148° |
| 2026-04-22 08:30 | 48.06356 | 21.69108 | 37112 ft | 461 kts | 149° |
| 2026-04-22 08:31 | 48.00806 | 21.73878 | 37113 ft | 461 kts | 149° |
| 2026-04-22 08:32 | 47.92484 | 21.81007 | 37116 ft | 460 kts | 149° |
| 2026-04-22 08:32 | 47.86905 | 21.85772 | 37109 ft | 460 kts | 149° |
| 2026-04-22 08:33 | 47.81349 | 21.90506 | 37104 ft | 461 kts | 149° |
| 2026-04-22 08:33 | 47.75766 | 21.95251 | 37105 ft | 462 kts | 149° |
| 2026-04-22 08:34 | 47.70213 | 21.99959 | 37100 ft | 462 kts | 150° |
| 2026-04-22 08:34 | 47.64585 | 22.04718 | 37100 ft | 462 kts | 150° |
| 2026-04-22 08:35 | 47.59097 | 22.09589 | 37098 ft | 461 kts | 144° |
| 2026-04-22 08:35 | 47.54326 | 22.15909 | 37097 ft | 461 kts | 131° |
| 2026-04-22 08:36 | 47.50167 | 22.23156 | 37090 ft | 461 kts | 127° |
| 2026-04-22 08:36 | 47.46198 | 22.30613 | 37094 ft | 461 kts | 127° |
| 2026-04-22 08:37 | 47.42211 | 22.38075 | 37096 ft | 462 kts | 127° |
| 2026-04-22 08:37 | 47.38186 | 22.45470 | 37099 ft | 462 kts | 128° |
| 2026-04-22 08:38 | 47.34135 | 22.52814 | 37093 ft | 461 kts | 128° |
| 2026-04-22 08:38 | 47.30080 | 22.60105 | 37092 ft | 463 kts | 128° |
| 2026-04-22 08:39 | 47.25983 | 22.67438 | 37090 ft | 463 kts | 129° |
| 2026-04-22 08:39 | 47.21883 | 22.74750 | 37089 ft | 463 kts | 129° |
| 2026-04-22 08:40 | 47.17811 | 22.81994 | 37080 ft | 463 kts | 129° |
| 2026-04-22 08:40 | 47.13699 | 22.89289 | 37072 ft | 464 kts | 129° |
| 2026-04-22 08:41 | 47.09584 | 22.96571 | 37065 ft | 464 kts | 129° |
| 2026-04-22 08:41 | 47.05459 | 23.03851 | 37064 ft | 464 kts | 129° |
| 2026-04-22 08:42 | 47.01335 | 23.11109 | 37064 ft | 465 kts | 129° |
| 2026-04-22 08:42 | 46.97195 | 23.18375 | 37064 ft | 464 kts | 129° |
| 2026-04-22 08:43 | 46.93044 | 23.25642 | 37063 ft | 465 kts | 129° |
| 2026-04-22 08:43 | 46.88906 | 23.32865 | 37061 ft | 465 kts | 129° |
| 2026-04-22 08:44 | 46.84753 | 23.40098 | 37067 ft | 465 kts | 129° |
| 2026-04-22 08:44 | 46.80574 | 23.47360 | 37072 ft | 467 kts | 129° |
| 2026-04-22 08:45 | 46.76391 | 23.54606 | 37079 ft | 467 kts | 129° |
| 2026-04-22 08:45 | 46.72215 | 23.61822 | 37082 ft | 466 kts | 129° |
| 2026-04-22 08:46 | 46.68020 | 23.69050 | 37082 ft | 466 kts | 130° |
| 2026-04-22 08:46 | 46.63839 | 23.76235 | 37083 ft | 467 kts | 130° |
| 2026-04-22 08:47 | 46.59636 | 23.83438 | 37080 ft | 467 kts | 130° |
| 2026-04-22 08:47 | 46.55445 | 23.90602 | 37078 ft | 468 kts | 130° |
| 2026-04-22 08:48 | 46.51223 | 23.97803 | 37081 ft | 469 kts | 130° |
| 2026-04-22 08:48 | 46.46991 | 24.05000 | 37079 ft | 468 kts | 130° |
| 2026-04-22 08:49 | 46.42793 | 24.12121 | 37081 ft | 468 kts | 130° |
| 2026-04-22 08:49 | 46.38559 | 24.19282 | 37079 ft | 468 kts | 131° |
| 2026-04-22 08:50 | 46.34326 | 24.26423 | 37077 ft | 468 kts | 131° |
| 2026-04-22 08:50 | 46.30117 | 24.33508 | 37070 ft | 468 kts | 131° |
| 2026-04-22 08:51 | 46.25879 | 24.40621 | 37068 ft | 468 kts | 131° |
| 2026-04-22 08:51 | 46.21608 | 24.47769 | 37068 ft | 470 kts | 131° |
| 2026-04-22 08:52 | 46.17361 | 24.54859 | 37063 ft | 469 kts | 131° |
| 2026-04-22 08:52 | 46.13105 | 24.61949 | 37058 ft | 469 kts | 131° |
| 2026-04-22 08:53 | 46.08817 | 24.69070 | 37058 ft | 469 kts | 132° |
| 2026-04-22 08:53 | 46.04555 | 24.76131 | 37057 ft | 468 kts | 132° |
| 2026-04-22 08:54 | 46.00282 | 24.83192 | 37056 ft | 468 kts | 132° |
| 2026-04-22 08:54 | 45.96020 | 24.90217 | 37051 ft | 469 kts | 132° |
| 2026-04-22 08:55 | 45.91735 | 24.97263 | 37051 ft | 470 kts | 132° |
| 2026-04-22 08:55 | 45.87445 | 25.04297 | 37049 ft | 470 kts | 132° |
| 2026-04-22 08:56 | 45.83115 | 25.11383 | 37049 ft | 471 kts | 132° |
| 2026-04-22 08:56 | 45.78805 | 25.18416 | 37051 ft | 471 kts | 132° |
| 2026-04-22 08:57 | 45.74483 | 25.25450 | 37052 ft | 470 kts | 132° |
| 2026-04-22 08:57 | 45.70179 | 25.32436 | 37046 ft | 471 kts | 132° |
| 2026-04-22 08:58 | 45.65847 | 25.39450 | 37046 ft | 471 kts | 132° |
| 2026-04-22 08:58 | 45.61525 | 25.46431 | 37042 ft | 471 kts | 132° |
| 2026-04-22 08:59 | 45.57187 | 25.53422 | 37036 ft | 470 kts | 132° |
| 2026-04-22 08:59 | 45.52849 | 25.60392 | 37023 ft | 471 kts | 133° |
| 2026-04-22 09:00 | 45.48486 | 25.67384 | 37004 ft | 472 kts | 133° |
| 2026-04-22 09:00 | 45.44149 | 25.74322 | 36997 ft | 472 kts | 133° |
| 2026-04-22 09:01 | 45.39769 | 25.81309 | 36988 ft | 473 kts | 134° |
| 2026-04-22 09:01 | 45.35410 | 25.88242 | 36989 ft | 471 kts | 134° |
| 2026-04-22 09:02 | 45.31052 | 25.95157 | 37002 ft | 471 kts | 133° |
| 2026-04-22 09:02 | 45.26682 | 26.02074 | 37014 ft | 471 kts | 134° |
| 2026-04-22 09:03 | 45.22323 | 26.08952 | 37035 ft | 471 kts | 134° |
| 2026-04-22 09:03 | 45.17956 | 26.15830 | 37053 ft | 472 kts | 134° |
| 2026-04-22 09:04 | 45.13571 | 26.22719 | 37063 ft | 472 kts | 134° |
| 2026-04-22 09:04 | 45.09177 | 26.29605 | 37067 ft | 472 kts | 134° |
| 2026-04-22 09:05 | 45.04764 | 26.36503 | 37072 ft | 472 kts | 134° |
| 2026-04-22 09:05 | 45.00164 | 26.43078 | 37066 ft | 470 kts | 142° |
| 2026-04-22 09:06 | 44.94917 | 26.48379 | 37069 ft | 466 kts | 151° |
| 2026-04-22 09:06 | 44.89337 | 26.53073 | 37070 ft | 465 kts | 153° |
| 2026-04-22 09:07 | 44.83723 | 26.57658 | 37072 ft | 466 kts | 153° |
| 2026-04-22 09:07 | 44.78141 | 26.62238 | 37071 ft | 467 kts | 152° |
| 2026-04-22 09:08 | 44.72561 | 26.66853 | 37072 ft | 466 kts | 153° |
| 2026-04-22 09:08 | 44.66975 | 26.71494 | 37072 ft | 466 kts | 153° |
| 2026-04-22 09:09 | 44.61416 | 26.76119 | 37069 ft | 466 kts | 153° |
| 2026-04-22 09:09 | 44.55861 | 26.80733 | 37071 ft | 465 kts | 153° |
| 2026-04-22 09:10 | 44.50290 | 26.85353 | 37071 ft | 465 kts | 153° |
| 2026-04-22 09:10 | 44.44730 | 26.89952 | 37074 ft | 465 kts | 153° |
| 2026-04-22 09:11 | 44.39206 | 26.94513 | 37074 ft | 464 kts | 153° |
| 2026-04-22 09:11 | 44.33650 | 26.99087 | 37070 ft | 466 kts | 153° |
| 2026-04-22 09:12 | 44.28043 | 27.03692 | 37070 ft | 466 kts | 153° |
| 2026-04-22 09:12 | 44.22494 | 27.08242 | 37069 ft | 465 kts | 153° |
| 2026-04-22 09:13 | 44.16908 | 27.12814 | 37069 ft | 465 kts | 153° |
| 2026-04-22 09:13 | 44.11346 | 27.17355 | 37070 ft | 465 kts | 153° |
| 2026-04-22 09:14 | 44.05796 | 27.21875 | 37068 ft | 464 kts | 153° |
| 2026-04-22 09:14 | 44.00216 | 27.26411 | 37069 ft | 466 kts | 153° |
| 2026-04-22 09:15 | 43.94610 | 27.30955 | 37070 ft | 466 kts | 153° |
| 2026-04-22 09:15 | 43.89043 | 27.35460 | 37071 ft | 466 kts | 154° |
| 2026-04-22 09:16 | 43.83413 | 27.40004 | 37070 ft | 465 kts | 154° |
| 2026-04-22 09:16 | 43.77839 | 27.44496 | 37063 ft | 466 kts | 154° |
| 2026-04-22 09:17 | 43.72254 | 27.48987 | 37063 ft | 465 kts | 154° |
| 2026-04-22 09:17 | 43.66671 | 27.53467 | 37057 ft | 463 kts | 154° |
| 2026-04-22 09:18 | 43.61092 | 27.57934 | 37046 ft | 463 kts | 154° |
| 2026-04-22 09:18 | 43.55516 | 27.62382 | 37049 ft | 465 kts | 154° |
| 2026-04-22 09:19 | 43.49934 | 27.66828 | 37049 ft | 464 kts | 155° |
| 2026-04-22 09:19 | 43.44360 | 27.71259 | 37054 ft | 465 kts | 155° |
| 2026-04-22 09:20 | 43.38748 | 27.75711 | 37057 ft | 464 kts | 155° |
| 2026-04-22 09:20 | 43.33178 | 27.80120 | 37069 ft | 463 kts | 155° |
| 2026-04-22 09:21 | 43.27625 | 27.84508 | 37059 ft | 463 kts | 155° |
| 2026-04-22 09:21 | 43.22057 | 27.88894 | 37073 ft | 464 kts | 155° |
| 2026-04-22 09:22 | 43.16448 | 27.93308 | 37083 ft | 464 kts | 155° |
| 2026-04-22 09:22 | 43.10886 | 27.97674 | 37067 ft | 463 kts | 156° |
| 2026-04-22 09:23 | 43.05329 | 28.02027 | 37067 ft | 463 kts | 156° |
| 2026-04-22 09:23 | 42.99750 | 28.06386 | 37077 ft | 462 kts | 155° |
| 2026-04-22 09:24 | 42.94217 | 28.10703 | 37078 ft | 461 kts | 156° |
| 2026-04-22 09:24 | 42.88633 | 28.15047 | 37059 ft | 461 kts | 156° |
| 2026-04-22 09:25 | 42.83076 | 28.19359 | 37086 ft | 461 kts | 156° |
| 2026-04-22 09:25 | 42.77479 | 28.23699 | 37084 ft | 461 kts | 156° |
| 2026-04-22 09:26 | 42.71946 | 28.27983 | 37066 ft | 459 kts | 156° |
| 2026-04-22 09:26 | 42.66412 | 28.32249 | 37077 ft | 461 kts | 156° |
| 2026-04-22 09:27 | 42.60822 | 28.36555 | 37073 ft | 460 kts | 156° |
| 2026-04-22 09:27 | 42.55268 | 28.40829 | 37065 ft | 460 kts | 156° |
| 2026-04-22 09:28 | 42.49751 | 28.45061 | 37088 ft | 459 kts | 156° |
| 2026-04-22 09:28 | 42.44198 | 28.49306 | 37075 ft | 461 kts | 157° |
| 2026-04-22 09:29 | 42.38616 | 28.53569 | 37074 ft | 460 kts | 156° |
| 2026-04-22 09:29 | 42.33054 | 28.57812 | 37067 ft | 459 kts | 157° |
| 2026-04-22 09:30 | 42.27513 | 28.62031 | 37077 ft | 459 kts | 156° |
| 2026-04-22 09:30 | 42.21942 | 28.66256 | 37069 ft | 460 kts | 158° |
| 2026-04-22 09:31 | 42.16415 | 28.70441 | 37028 ft | 458 kts | 158° |
| 2026-04-22 09:31 | 42.10828 | 28.74525 | 37075 ft | 454 kts | 163° |
| 2026-04-22 09:32 | 42.04911 | 28.76790 | 37059 ft | 434 kts | 181° |
| 2026-04-22 09:32 | 41.98943 | 28.77275 | 37047 ft | 432 kts | 186° |
| 2026-04-22 09:33 | 41.92984 | 28.77428 | 37055 ft | 429 kts | 187° |
| 2026-04-22 09:33 | 41.86968 | 28.77567 | 37052 ft | 431 kts | 187° |
| 2026-04-22 09:34 | 41.80999 | 28.77751 | 37046 ft | 428 kts | 186° |
| 2026-04-22 09:34 | 41.75049 | 28.77959 | 37054 ft | 432 kts | 186° |
| 2026-04-22 09:35 | 41.66027 | 28.78296 | 37038 ft | 430 kts | 186° |
| 2026-04-22 09:35 | 41.60048 | 28.78530 | 37034 ft | 432 kts | 186° |
| 2026-04-22 09:36 | 41.54059 | 28.78762 | 37038 ft | 435 kts | 186° |
| 2026-04-22 09:36 | 41.48001 | 28.79001 | 37032 ft | 433 kts | 186° |
| 2026-04-22 09:37 | 41.41959 | 28.79235 | 37037 ft | 435 kts | 186° |
| 2026-04-22 09:37 | 41.35945 | 28.79471 | 37032 ft | 434 kts | 186° |
| 2026-04-22 09:38 | 41.29915 | 28.79702 | 37028 ft | 435 kts | 186° |
| 2026-04-22 09:38 | 41.23865 | 28.79937 | 37024 ft | 435 kts | 186° |
| 2026-04-22 09:39 | 41.17824 | 28.80179 | 37023 ft | 436 kts | 186° |
| 2026-04-22 09:39 | 41.11724 | 28.80441 | 37021 ft | 435 kts | 186° |
| 2026-04-22 09:40 | 41.05715 | 28.80699 | 37023 ft | 437 kts | 186° |
| 2026-04-22 09:40 | 40.99611 | 28.81002 | 37013 ft | 439 kts | 184° |
| 2026-04-22 09:41 | 40.93562 | 28.82391 | 37014 ft | 451 kts | 170° |
| 2026-04-22 09:41 | 40.87595 | 28.85330 | 37013 ft | 458 kts | 164° |
| 2026-04-22 09:42 | 40.81744 | 28.88656 | 37012 ft | 456 kts | 163° |
| 2026-04-22 09:42 | 40.78857 | 28.90315 | 36748 ft | 452 kts | 163° |
| 2026-04-22 09:42 | 40.75985 | 28.91950 | 36976 ft | 450 kts | 163° |
| 2026-04-22 09:43 | 40.70183 | 28.95187 | 36991 ft | 457 kts | 163° |
| 2026-04-22 09:43 | 40.64300 | 28.98408 | 36975 ft | 457 kts | 164° |
| 2026-04-22 09:44 | 40.58434 | 29.01601 | 36976 ft | 457 kts | 164° |
| 2026-04-22 09:44 | 40.52561 | 29.04779 | 36959 ft | 456 kts | 164° |
| 2026-04-22 09:45 | 40.46708 | 29.07934 | 36951 ft | 458 kts | 164° |
| 2026-04-22 09:45 | 40.40803 | 29.11110 | 36954 ft | 457 kts | 164° |
| 2026-04-22 09:46 | 40.34921 | 29.14271 | 36946 ft | 456 kts | 164° |
| 2026-04-22 09:46 | 40.29073 | 29.17403 | 36941 ft | 457 kts | 164° |
| 2026-04-22 09:47 | 40.23196 | 29.20548 | 36942 ft | 456 kts | 164° |
| 2026-04-22 09:47 | 40.17321 | 29.23683 | 36941 ft | 458 kts | 164° |
| 2026-04-22 09:48 | 40.11440 | 29.26821 | 36931 ft | 456 kts | 163° |
| 2026-04-22 09:48 | 40.05559 | 29.29952 | 36932 ft | 456 kts | 164° |
| 2026-04-22 09:49 | 39.99694 | 29.33067 | 36923 ft | 456 kts | 164° |
| 2026-04-22 09:49 | 39.93828 | 29.36177 | 36920 ft | 456 kts | 163° |
| 2026-04-22 09:50 | 39.87958 | 29.39297 | 36917 ft | 457 kts | 163° |
| 2026-04-22 09:50 | 39.82068 | 29.42525 | 36916 ft | 457 kts | 162° |
| 2026-04-22 09:51 | 39.76240 | 29.45750 | 36919 ft | 457 kts | 162° |
| 2026-04-22 09:51 | 39.70387 | 29.48979 | 36923 ft | 458 kts | 162° |
| 2026-04-22 09:52 | 39.64511 | 29.52207 | 36921 ft | 457 kts | 162° |
| 2026-04-22 09:52 | 39.58644 | 29.55283 | 36931 ft | 456 kts | 164° |
| 2026-04-22 09:53 | 39.52766 | 29.58198 | 36931 ft | 455 kts | 165° |
| 2026-04-22 09:53 | 39.46833 | 29.61112 | 36933 ft | 456 kts | 164° |
| 2026-04-22 09:54 | 39.40922 | 29.64024 | 36939 ft | 457 kts | 164° |
| 2026-04-22 09:54 | 39.34968 | 29.66969 | 36943 ft | 455 kts | 165° |
| 2026-04-22 09:55 | 39.29068 | 29.69892 | 36945 ft | 456 kts | 165° |
| 2026-04-22 09:55 | 39.23116 | 29.72837 | 36945 ft | 456 kts | 165° |
| 2026-04-22 09:56 | 39.17223 | 29.75749 | 36949 ft | 456 kts | 165° |
| 2026-04-22 09:56 | 39.11280 | 29.78681 | 36952 ft | 456 kts | 165° |
| 2026-04-22 09:57 | 39.05403 | 29.81578 | 36955 ft | 455 kts | 165° |
| 2026-04-22 09:57 | 38.99466 | 29.84495 | 36968 ft | 456 kts | 165° |
| 2026-04-22 09:58 | 38.93566 | 29.87390 | 36967 ft | 456 kts | 165° |
| 2026-04-22 09:58 | 38.87630 | 29.90293 | 36967 ft | 455 kts | 165° |
| 2026-04-22 09:59 | 38.81670 | 29.93149 | 36973 ft | 455 kts | 165° |
| 2026-04-22 09:59 | 38.75752 | 29.95952 | 36973 ft | 455 kts | 165° |
| 2026-04-22 10:00 | 38.69847 | 29.98741 | 36985 ft | 454 kts | 165° |
| 2026-04-22 10:00 | 38.63896 | 30.01551 | 36988 ft | 455 kts | 165° |
| 2026-04-22 10:01 | 38.57987 | 30.04341 | 36982 ft | 454 kts | 165° |
| 2026-04-22 10:01 | 38.52064 | 30.07136 | 36983 ft | 455 kts | 165° |
| 2026-04-22 10:02 | 38.46115 | 30.09936 | 36981 ft | 454 kts | 165° |
| 2026-04-22 10:02 | 38.40217 | 30.12709 | 36981 ft | 454 kts | 165° |
| 2026-04-22 10:03 | 38.34305 | 30.15486 | 36990 ft | 454 kts | 165° |
| 2026-04-22 10:03 | 38.28359 | 30.18249 | 36993 ft | 454 kts | 165° |
| 2026-04-22 10:04 | 38.22420 | 30.20973 | 37007 ft | 455 kts | 165° |
| 2026-04-22 10:04 | 38.19439 | 30.22335 | 37177 ft | 458 kts | 165° |
| 2026-04-22 10:04 | 38.16433 | 30.23709 | 37519 ft | 456 kts | 165° |
| 2026-04-22 10:05 | 38.13495 | 30.25055 | 37870 ft | 454 kts | 165° |
| 2026-04-22 10:05 | 38.10538 | 30.26411 | 38218 ft | 451 kts | 165° |
| 2026-04-22 10:05 | 38.07589 | 30.27764 | 38571 ft | 447 kts | 166° |
| 2026-04-22 10:05 | 38.04688 | 30.29094 | 38854 ft | 446 kts | 166° |
| 2026-04-22 10:06 | 38.01783 | 30.30422 | 39010 ft | 445 kts | 166° |
| 2026-04-22 10:06 | 37.98851 | 30.31756 | 39026 ft | 448 kts | 166° |
| 2026-04-22 10:06 | 37.92919 | 30.34437 | 39040 ft | 453 kts | 166° |
| 2026-04-22 10:07 | 37.86991 | 30.37117 | 39042 ft | 451 kts | 166° |
| 2026-04-22 10:07 | 37.81088 | 30.39786 | 39033 ft | 449 kts | 166° |
| 2026-04-22 10:08 | 37.75187 | 30.42447 | 39024 ft | 451 kts | 166° |
| 2026-04-22 10:08 | 37.69278 | 30.45109 | 39029 ft | 451 kts | 166° |
| 2026-04-22 10:09 | 37.63399 | 30.47753 | 39031 ft | 450 kts | 166° |
| 2026-04-22 10:09 | 37.57490 | 30.50406 | 39030 ft | 450 kts | 166° |
| 2026-04-22 10:10 | 37.51594 | 30.53046 | 39022 ft | 451 kts | 166° |
| 2026-04-22 10:10 | 37.45680 | 30.55692 | 39016 ft | 450 kts | 166° |
| 2026-04-22 10:11 | 37.39777 | 30.58330 | 39014 ft | 450 kts | 166° |
| 2026-04-22 10:11 | 37.33913 | 30.60944 | 39013 ft | 449 kts | 166° |
| 2026-04-22 10:12 | 37.27981 | 30.63582 | 39007 ft | 450 kts | 166° |
| 2026-04-22 10:12 | 37.22060 | 30.66212 | 38866 ft | 450 kts | 166° |
| 2026-04-22 10:13 | 37.16146 | 30.68831 | 38864 ft | 455 kts | 166° |
| 2026-04-22 10:13 | 37.10181 | 30.71468 | 39014 ft | 457 kts | 166° |
| 2026-04-22 10:14 | 37.04212 | 30.74113 | 39006 ft | 450 kts | 166° |
| 2026-04-22 10:14 | 36.98320 | 30.76718 | 39008 ft | 452 kts | 166° |
| 2026-04-22 10:15 | 36.92341 | 30.78974 | 39013 ft | 446 kts | 175° |
| 2026-04-22 10:15 | 36.86215 | 30.79867 | 39016 ft | 439 kts | 183° |
| 2026-04-22 10:16 | 36.80249 | 30.80100 | 39010 ft | 437 kts | 185° |
| 2026-04-22 10:16 | 36.74148 | 30.80226 | 39010 ft | 437 kts | 185° |
| 2026-04-22 10:17 | 36.68094 | 30.80369 | 39004 ft | 437 kts | 185° |
| 2026-04-22 10:17 | 36.62021 | 30.80540 | 38999 ft | 438 kts | 185° |
| 2026-04-22 10:18 | 36.55916 | 30.80733 | 38993 ft | 438 kts | 184° |
| 2026-04-22 10:18 | 36.49797 | 30.80941 | 38995 ft | 438 kts | 184° |
| 2026-04-22 10:19 | 36.43707 | 30.81151 | 38994 ft | 439 kts | 184° |
| 2026-04-22 10:19 | 36.37612 | 30.81358 | 38996 ft | 439 kts | 184° |
| 2026-04-22 10:20 | 36.31502 | 30.81562 | 38998 ft | 439 kts | 184° |
| 2026-04-22 10:20 | 36.25421 | 30.81761 | 38996 ft | 440 kts | 184° |
| 2026-04-22 10:21 | 36.19296 | 30.81963 | 39002 ft | 439 kts | 184° |
| 2026-04-22 10:21 | 36.13184 | 30.82167 | 39004 ft | 439 kts | 184° |
| 2026-04-22 10:22 | 36.07079 | 30.82370 | 39018 ft | 439 kts | 184° |
| 2026-04-22 10:22 | 36.00995 | 30.82586 | 39029 ft | 440 kts | 184° |
| 2026-04-22 10:23 | 35.94863 | 30.82869 | 39027 ft | 442 kts | 183° |
| 2026-04-22 10:23 | 35.88726 | 30.83175 | 39026 ft | 442 kts | 183° |
| 2026-04-22 10:24 | 35.82570 | 30.83476 | 39031 ft | 442 kts | 183° |
| 2026-04-22 10:24 | 35.76465 | 30.83767 | 39030 ft | 440 kts | 184° |
| 2026-04-22 10:25 | 35.70336 | 30.84054 | 39028 ft | 441 kts | 183° |
| 2026-04-22 10:25 | 35.64191 | 30.84341 | 39025 ft | 441 kts | 183° |
| 2026-04-22 10:26 | 35.58069 | 30.84627 | 39025 ft | 441 kts | 184° |
| 2026-04-22 10:26 | 35.51914 | 30.84913 | 39030 ft | 442 kts | 184° |
| 2026-04-22 10:27 | 35.45800 | 30.85200 | 39026 ft | 441 kts | 183° |
| 2026-04-22 10:27 | 35.39659 | 30.85484 | 39028 ft | 443 kts | 183° |
| 2026-04-22 10:28 | 35.33501 | 30.85771 | 39024 ft | 442 kts | 183° |
| 2026-04-22 10:28 | 35.27353 | 30.86057 | 39026 ft | 442 kts | 183° |
| 2026-04-22 10:29 | 35.21218 | 30.86340 | 39025 ft | 443 kts | 183° |
| 2026-04-22 10:29 | 35.15073 | 30.86612 | 39028 ft | 444 kts | 183° |
| 2026-04-22 10:30 | 35.08870 | 30.86830 | 39026 ft | 443 kts | 184° |
| 2026-04-22 10:30 | 35.02740 | 30.87022 | 39031 ft | 444 kts | 184° |
| 2026-04-22 10:31 | 34.96553 | 30.87217 | 39022 ft | 442 kts | 184° |
| 2026-04-22 10:31 | 34.90450 | 30.87415 | 39031 ft | 442 kts | 184° |
| 2026-04-22 10:32 | 34.84261 | 30.87616 | 39025 ft | 443 kts | 184° |
| 2026-04-22 10:32 | 34.78095 | 30.87818 | 39027 ft | 443 kts | 184° |
| 2026-04-22 10:33 | 34.71974 | 30.88019 | 39026 ft | 443 kts | 184° |
| 2026-04-22 10:33 | 34.65777 | 30.88223 | 39020 ft | 444 kts | 184° |
| 2026-04-22 10:34 | 34.59610 | 30.88434 | 39020 ft | 443 kts | 184° |
| 2026-04-22 10:34 | 34.53464 | 30.88723 | 39030 ft | 443 kts | 183° |
| 2026-04-22 10:35 | 34.47307 | 30.89040 | 39026 ft | 443 kts | 183° |
| 2026-04-22 10:35 | 34.41136 | 30.89356 | 39025 ft | 445 kts | 183° |
| 2026-04-22 10:36 | 34.34983 | 30.89664 | 39025 ft | 444 kts | 183° |
| 2026-04-22 10:36 | 34.28777 | 30.89972 | 39024 ft | 444 kts | 183° |
| 2026-04-22 10:37 | 34.19535 | 30.90440 | 39022 ft | 444 kts | 183° |
| 2026-04-22 10:38 | 34.13383 | 30.90785 | 39029 ft | 445 kts | 183° |
| 2026-04-22 10:38 | 34.07185 | 30.91135 | 39022 ft | 444 kts | 183° |
| 2026-04-22 10:39 | 34.01022 | 30.91480 | 39027 ft | 445 kts | 183° |
| 2026-04-22 10:39 | 33.94815 | 30.91826 | 39019 ft | 447 kts | 183° |
| 2026-04-22 10:40 | 33.88600 | 30.92105 | 39024 ft | 446 kts | 184° |
| 2026-04-22 10:40 | 33.82420 | 30.92331 | 39026 ft | 444 kts | 184° |
| 2026-04-22 10:41 | 33.76217 | 30.92550 | 39030 ft | 445 kts | 184° |
| 2026-04-22 10:41 | 33.70044 | 30.92773 | 39033 ft | 445 kts | 184° |
| 2026-04-22 10:42 | 33.63855 | 30.93003 | 39035 ft | 444 kts | 184° |
| 2026-04-22 10:42 | 33.57652 | 30.93237 | 39030 ft | 444 kts | 184° |
| 2026-04-22 10:43 | 33.51494 | 30.93469 | 39026 ft | 445 kts | 184° |
| 2026-04-22 10:43 | 33.45314 | 30.93702 | 39036 ft | 445 kts | 184° |
| 2026-04-22 10:44 | 33.39106 | 30.93936 | 39037 ft | 445 kts | 184° |
| 2026-04-22 10:44 | 33.32913 | 30.94168 | 39042 ft | 446 kts | 184° |
| 2026-04-22 10:45 | 33.26701 | 30.94400 | 39040 ft | 446 kts | 184° |
| 2026-04-22 10:45 | 33.20507 | 30.94632 | 39053 ft | 447 kts | 184° |
| 2026-04-22 10:46 | 33.14261 | 30.94867 | 39045 ft | 446 kts | 184° |
| 2026-04-22 10:46 | 33.08055 | 30.95133 | 39040 ft | 449 kts | 183° |
| 2026-04-22 10:47 | 33.01831 | 30.95744 | 39040 ft | 451 kts | 180° |
| 2026-04-22 10:47 | 32.95562 | 30.96516 | 39048 ft | 451 kts | 180° |
| 2026-04-22 10:48 | 32.89318 | 30.97280 | 39040 ft | 450 kts | 180° |
| 2026-04-22 10:48 | 32.83070 | 30.98016 | 39042 ft | 449 kts | 181° |
| 2026-04-22 10:49 | 32.76873 | 30.98725 | 39049 ft | 450 kts | 181° |
| 2026-04-22 10:49 | 32.70618 | 30.99428 | 39054 ft | 449 kts | 181° |
| 2026-04-22 10:50 | 32.64373 | 31.00123 | 39046 ft | 450 kts | 181° |
| 2026-04-22 10:50 | 32.58163 | 31.00811 | 39044 ft | 450 kts | 181° |
| 2026-04-22 10:51 | 32.51929 | 31.01503 | 39048 ft | 450 kts | 181° |
| 2026-04-22 10:51 | 32.45682 | 31.02197 | 39045 ft | 449 kts | 181° |
| 2026-04-22 10:52 | 32.39471 | 31.02886 | 39047 ft | 448 kts | 181° |
| 2026-04-22 10:52 | 32.33244 | 31.03576 | 39047 ft | 449 kts | 181° |
| 2026-04-22 10:53 | 32.27006 | 31.04260 | 39045 ft | 449 kts | 181° |
| 2026-04-22 10:53 | 32.20782 | 31.04943 | 39043 ft | 449 kts | 181° |
| 2026-04-22 10:54 | 32.14573 | 31.05626 | 39047 ft | 448 kts | 181° |
| 2026-04-22 10:54 | 32.08349 | 31.06311 | 39047 ft | 449 kts | 181° |
| 2026-04-22 10:55 | 32.02135 | 31.06993 | 39042 ft | 449 kts | 181° |
| 2026-04-22 10:55 | 31.95923 | 31.07664 | 39042 ft | 448 kts | 181° |
| 2026-04-22 10:56 | 31.89696 | 31.08332 | 39046 ft | 450 kts | 181° |
| 2026-04-22 10:56 | 31.83472 | 31.09000 | 39041 ft | 448 kts | 181° |
| 2026-04-22 10:57 | 31.77240 | 31.09670 | 39037 ft | 447 kts | 181° |
| 2026-04-22 10:57 | 31.71035 | 31.10333 | 39026 ft | 448 kts | 181° |
| 2026-04-22 10:58 | 31.64784 | 31.11002 | 39027 ft | 448 kts | 181° |
| 2026-04-22 10:58 | 31.58618 | 31.11662 | 39025 ft | 447 kts | 181° |
| 2026-04-22 10:59 | 31.52405 | 31.12332 | 39025 ft | 448 kts | 181° |
| 2026-04-22 10:59 | 31.46183 | 31.13313 | 39022 ft | 451 kts | 178° |
| 2026-04-22 11:00 | 31.39971 | 31.14536 | 39012 ft | 453 kts | 177° |
| 2026-04-22 11:00 | 31.33781 | 31.15774 | 39004 ft | 450 kts | 177° |
| 2026-04-22 11:01 | 31.27600 | 31.16979 | 38997 ft | 450 kts | 177° |
| 2026-04-22 11:01 | 31.21423 | 31.18154 | 38992 ft | 450 kts | 178° |
| 2026-04-22 11:02 | 31.15229 | 31.19318 | 38975 ft | 451 kts | 178° |
| 2026-04-22 11:02 | 31.09008 | 31.20480 | 38989 ft | 450 kts | 178° |
| 2026-04-22 11:03 | 31.02825 | 31.21630 | 38979 ft | 451 kts | 178° |
| 2026-04-22 11:03 | 30.96650 | 31.22778 | 38971 ft | 450 kts | 178° |
| 2026-04-22 11:04 | 30.90424 | 31.23930 | 38982 ft | 451 kts | 178° |
| 2026-04-22 11:04 | 30.84218 | 31.25080 | 38974 ft | 449 kts | 178° |
| 2026-04-22 11:05 | 30.78071 | 31.26216 | 38972 ft | 449 kts | 178° |
| 2026-04-22 11:05 | 30.71891 | 31.27358 | 38972 ft | 448 kts | 179° |
| 2026-04-22 11:06 | 30.65688 | 31.28500 | 38972 ft | 449 kts | 179° |
| 2026-04-22 11:06 | 30.59506 | 31.29636 | 38967 ft | 451 kts | 179° |
| 2026-04-22 11:07 | 30.53316 | 31.30777 | 38973 ft | 450 kts | 179° |
| 2026-04-22 11:07 | 30.47132 | 31.31917 | 38971 ft | 450 kts | 179° |
| 2026-04-22 11:08 | 30.40977 | 31.33048 | 38975 ft | 449 kts | 179° |
| 2026-04-22 11:08 | 30.34760 | 31.34190 | 38979 ft | 449 kts | 179° |
| 2026-04-22 11:09 | 30.28567 | 31.35327 | 38985 ft | 449 kts | 179° |
| 2026-04-22 11:09 | 30.22392 | 31.36456 | 38986 ft | 448 kts | 179° |
| 2026-04-22 11:10 | 30.16207 | 31.37588 | 38987 ft | 447 kts | 179° |
| 2026-04-22 11:10 | 30.10039 | 31.39075 | 38991 ft | 459 kts | 169° |
| 2026-04-22 11:10 | 30.07066 | 31.40612 | 38999 ft | 474 kts | 158° |
| 2026-04-22 11:11 | 30.04240 | 31.42668 | 39004 ft | 480 kts | 153° |
| 2026-04-22 11:11 | 29.98855 | 31.47235 | 39009 ft | 483 kts | 149° |
| 2026-04-22 11:12 | 29.93535 | 31.51989 | 39007 ft | 483 kts | 149° |
| 2026-04-22 11:12 | 29.88221 | 31.56681 | 39002 ft | 482 kts | 150° |
| 2026-04-22 11:13 | 29.82887 | 31.61298 | 39001 ft | 481 kts | 150° |
| 2026-04-22 11:13 | 29.77516 | 31.65889 | 39000 ft | 480 kts | 151° |
| 2026-04-22 11:14 | 29.72138 | 31.70457 | 39002 ft | 481 kts | 151° |
| 2026-04-22 11:14 | 29.66732 | 31.75038 | 39006 ft | 481 kts | 152° |
| 2026-04-22 11:15 | 29.61385 | 31.79564 | 39012 ft | 481 kts | 151° |
| 2026-04-22 11:15 | 29.55991 | 31.84124 | 39020 ft | 481 kts | 151° |
| 2026-04-22 11:16 | 29.50581 | 31.88693 | 39025 ft | 482 kts | 151° |
| 2026-04-22 11:16 | 29.45184 | 31.93240 | 39029 ft | 483 kts | 151° |
| 2026-04-22 11:17 | 29.39754 | 31.97809 | 39032 ft | 483 kts | 152° |
| 2026-04-22 11:17 | 29.34378 | 32.02331 | 39032 ft | 483 kts | 152° |
| 2026-04-22 11:18 | 29.28930 | 32.06903 | 39025 ft | 484 kts | 152° |
| 2026-04-22 11:18 | 29.23502 | 32.11459 | 39036 ft | 481 kts | 152° |
| 2026-04-22 11:19 | 29.18094 | 32.15990 | 39017 ft | 483 kts | 152° |
| 2026-04-22 11:19 | 29.12688 | 32.20507 | 39005 ft | 481 kts | 152° |
| 2026-04-22 11:20 | 29.07284 | 32.25017 | 38987 ft | 483 kts | 152° |
| 2026-04-22 11:20 | 29.01864 | 32.29537 | 38970 ft | 482 kts | 152° |
| 2026-04-22 11:21 | 28.96439 | 32.34060 | 38962 ft | 481 kts | 152° |
| 2026-04-22 11:21 | 28.91033 | 32.38552 | 38967 ft | 482 kts | 152° |
| 2026-04-22 11:22 | 28.85584 | 32.43075 | 38973 ft | 483 kts | 152° |
| 2026-04-22 11:22 | 28.80160 | 32.47573 | 38968 ft | 481 kts | 152° |
| 2026-04-22 11:23 | 28.74729 | 32.52075 | 38965 ft | 481 kts | 152° |
| 2026-04-22 11:23 | 28.69310 | 32.56556 | 38967 ft | 483 kts | 152° |
| 2026-04-22 11:24 | 28.63877 | 32.61046 | 38958 ft | 482 kts | 152° |
| 2026-04-22 11:24 | 28.58457 | 32.65520 | 38957 ft | 482 kts | 152° |
| 2026-04-22 11:25 | 28.53025 | 32.69998 | 38951 ft | 480 kts | 152° |
| 2026-04-22 11:25 | 28.47583 | 32.74474 | 38950 ft | 483 kts | 153° |
| 2026-04-22 11:26 | 28.42133 | 32.78955 | 38948 ft | 482 kts | 153° |
| 2026-04-22 11:26 | 28.36676 | 32.83434 | 38946 ft | 482 kts | 152° |
| 2026-04-22 11:27 | 28.31223 | 32.87904 | 38945 ft | 483 kts | 152° |
| 2026-04-22 11:27 | 28.25792 | 32.92350 | 38941 ft | 483 kts | 153° |
| 2026-04-22 11:28 | 28.20324 | 32.96820 | 38941 ft | 483 kts | 153° |
| 2026-04-22 11:28 | 28.14862 | 33.01280 | 38933 ft | 482 kts | 153° |
| 2026-04-22 11:29 | 28.09423 | 33.05716 | 38929 ft | 483 kts | 153° |
| 2026-04-22 11:29 | 28.03946 | 33.10177 | 38932 ft | 483 kts | 153° |
| 2026-04-22 11:30 | 27.98494 | 33.14614 | 38929 ft | 483 kts | 153° |
| 2026-04-22 11:30 | 27.92994 | 33.19079 | 38922 ft | 484 kts | 153° |
| 2026-04-22 11:31 | 27.87488 | 33.23547 | 38915 ft | 483 kts | 152° |
| 2026-04-22 11:31 | 27.82023 | 33.27979 | 38918 ft | 483 kts | 153° |
| 2026-04-22 11:32 | 27.76583 | 33.32384 | 38908 ft | 484 kts | 153° |
| 2026-04-22 11:32 | 27.71086 | 33.36828 | 38904 ft | 484 kts | 153° |
| 2026-04-22 11:33 | 27.65623 | 33.41242 | 38901 ft | 483 kts | 153° |
| 2026-04-22 11:33 | 27.60162 | 33.45647 | 38894 ft | 484 kts | 153° |
| 2026-04-22 11:34 | 27.54680 | 33.50060 | 38891 ft | 484 kts | 152° |
| 2026-04-22 11:34 | 27.49221 | 33.54451 | 38891 ft | 483 kts | 153° |
| 2026-04-22 11:35 | 27.43743 | 33.58849 | 38885 ft | 483 kts | 153° |
| 2026-04-22 11:35 | 27.38276 | 33.63238 | 38878 ft | 481 kts | 153° |
| 2026-04-22 11:36 | 27.32835 | 33.67580 | 38878 ft | 478 kts | 155° |
| 2026-04-22 11:36 | 27.27103 | 33.71227 | 38880 ft | 470 kts | 163° |
| 2026-04-22 11:37 | 27.21205 | 33.74431 | 38883 ft | 467 kts | 164° |
| 2026-04-22 11:37 | 27.15339 | 33.77610 | 38865 ft | 468 kts | 163° |
| 2026-04-22 11:37 | 27.12418 | 33.79227 | 38566 ft | 464 kts | 163° |
| 2026-04-22 11:38 | 27.09554 | 33.80837 | 38194 ft | 459 kts | 162° |
| 2026-04-22 11:38 | 27.06726 | 33.82442 | 37688 ft | 457 kts | 162° |
| 2026-04-22 11:38 | 27.01060 | 33.85677 | 36492 ft | 457 kts | 162° |
| 2026-04-22 11:39 | 26.98218 | 33.87304 | 35868 ft | 458 kts | 162° |
| 2026-04-22 11:39 | 26.95378 | 33.88932 | 35188 ft | 459 kts | 162° |
| 2026-04-22 11:39 | 26.92557 | 33.90554 | 34644 ft | 456 kts | 162° |
| 2026-04-22 11:39 | 26.89729 | 33.92183 | 34111 ft | 454 kts | 162° |
| 2026-04-22 11:40 | 26.86954 | 33.93783 | 33577 ft | 451 kts | 163° |
| 2026-04-22 11:40 | 26.84161 | 33.95392 | 33028 ft | 449 kts | 163° |
| 2026-04-22 11:40 | 26.81395 | 33.96983 | 32491 ft | 446 kts | 163° |
| 2026-04-22 11:40 | 26.78649 | 33.98562 | 31963 ft | 443 kts | 163° |
| 2026-04-22 11:41 | 26.75908 | 34.00137 | 31430 ft | 440 kts | 163° |
| 2026-04-22 11:41 | 26.73190 | 34.01698 | 30901 ft | 437 kts | 163° |
| 2026-04-22 11:41 | 26.70492 | 34.03247 | 30377 ft | 434 kts | 163° |
| 2026-04-22 11:41 | 26.67819 | 34.04780 | 29858 ft | 431 kts | 163° |
| 2026-04-22 11:42 | 26.65159 | 34.06305 | 29339 ft | 428 kts | 163° |
| 2026-04-22 11:42 | 26.62531 | 34.07810 | 28833 ft | 426 kts | 163° |
| 2026-04-22 11:42 | 26.59899 | 34.09316 | 28308 ft | 423 kts | 162° |
| 2026-04-22 11:42 | 26.57253 | 34.10827 | 27792 ft | 421 kts | 162° |
| 2026-04-22 11:43 | 26.54669 | 34.12302 | 27278 ft | 418 kts | 162° |
| 2026-04-22 11:43 | 26.52092 | 34.13775 | 26764 ft | 416 kts | 162° |
| 2026-04-22 11:43 | 26.49517 | 34.15245 | 26256 ft | 413 kts | 162° |
| 2026-04-22 11:43 | 26.46952 | 34.16708 | 25747 ft | 411 kts | 161° |
| 2026-04-22 11:44 | 26.44414 | 34.18154 | 25234 ft | 408 kts | 161° |
| 2026-04-22 11:44 | 26.41920 | 34.19575 | 24742 ft | 406 kts | 161° |
| 2026-04-22 11:44 | 26.39418 | 34.21001 | 24229 ft | 403 kts | 161° |
| 2026-04-22 11:44 | 26.36916 | 34.22428 | 23722 ft | 401 kts | 161° |
| 2026-04-22 11:45 | 26.34427 | 34.23846 | 23228 ft | 398 kts | 161° |
| 2026-04-22 11:45 | 26.31981 | 34.25238 | 22737 ft | 396 kts | 161° |
| 2026-04-22 11:45 | 26.29510 | 34.26642 | 22248 ft | 393 kts | 160° |
| 2026-04-22 11:45 | 26.27105 | 34.28008 | 21760 ft | 391 kts | 160° |
| 2026-04-22 11:46 | 26.24669 | 34.29391 | 21242 ft | 388 kts | 159° |
| 2026-04-22 11:46 | 26.22283 | 34.30749 | 20757 ft | 379 kts | 159° |
| 2026-04-22 11:46 | 26.19989 | 34.32058 | 20308 ft | 370 kts | 159° |
| 2026-04-22 11:46 | 26.17712 | 34.33355 | 19853 ft | 361 kts | 158° |
| 2026-04-22 11:47 | 26.15483 | 34.34621 | 19422 ft | 356 kts | 158° |
| 2026-04-22 11:47 | 26.13298 | 34.35857 | 18926 ft | 355 kts | 158° |
| 2026-04-22 11:47 | 26.11086 | 34.37105 | 18480 ft | 353 kts | 157° |
| 2026-04-22 11:47 | 26.08902 | 34.38337 | 18041 ft | 350 kts | 157° |
| 2026-04-22 11:48 | 26.06749 | 34.39552 | 17598 ft | 349 kts | 156° |
| 2026-04-22 11:48 | 26.04591 | 34.40772 | 17147 ft | 346 kts | 156° |
| 2026-04-22 11:48 | 26.02447 | 34.41985 | 16705 ft | 344 kts | 156° |
| 2026-04-22 11:48 | 26.00293 | 34.43204 | 16236 ft | 342 kts | 156° |
| 2026-04-22 11:49 | 25.98195 | 34.44397 | 15818 ft | 339 kts | 154° |
| 2026-04-22 11:49 | 25.96116 | 34.45696 | 15383 ft | 338 kts | 151° |
| 2026-04-22 11:49 | 25.94124 | 34.47048 | 14956 ft | 337 kts | 150° |
| 2026-04-22 11:49 | 25.92122 | 34.48442 | 14503 ft | 335 kts | 149° |
| 2026-04-22 11:50 | 25.90147 | 34.49816 | 14066 ft | 333 kts | 150° |
| 2026-04-22 11:50 | 25.88175 | 34.51172 | 13631 ft | 332 kts | 149° |
| 2026-04-22 11:50 | 25.86238 | 34.52600 | 13184 ft | 332 kts | 145° |
| 2026-04-22 11:50 | 25.84383 | 34.54133 | 12755 ft | 330 kts | 143° |
| 2026-04-22 11:51 | 25.82577 | 34.55693 | 12308 ft | 329 kts | 142° |
| 2026-04-22 11:51 | 25.80781 | 34.57249 | 11894 ft | 326 kts | 142° |
| 2026-04-22 11:51 | 25.78977 | 34.58794 | 11483 ft | 324 kts | 142° |
| 2026-04-22 11:51 | 25.77201 | 34.60296 | 11066 ft | 323 kts | 142° |
| 2026-04-22 11:52 | 25.75405 | 34.61801 | 10638 ft | 321 kts | 142° |
| 2026-04-22 11:52 | 25.73618 | 34.63293 | 10215 ft | 318 kts | 142° |
| 2026-04-22 11:52 | 25.71881 | 34.64740 | 9966 ft | 310 kts | 142° |
| 2026-04-22 11:52 | 25.70174 | 34.66163 | 9844 ft | 298 kts | 143° |
| 2026-04-22 11:53 | 25.68519 | 34.67543 | 9490 ft | 296 kts | 142° |
| 2026-04-22 11:53 | 25.66875 | 34.68914 | 9125 ft | 295 kts | 142° |
| 2026-04-22 11:53 | 25.65233 | 34.70283 | 8770 ft | 294 kts | 142° |
| 2026-04-22 11:53 | 25.63610 | 34.71636 | 8413 ft | 293 kts | 142° |
| 2026-04-22 11:54 | 25.61976 | 34.72995 | 8056 ft | 291 kts | 142° |
| 2026-04-22 11:54 | 25.60388 | 34.74318 | 7656 ft | 281 kts | 142° |
| 2026-04-22 11:54 | 25.58848 | 34.75600 | 7367 ft | 270 kts | 142° |
| 2026-04-22 11:54 | 25.57348 | 34.76848 | 7032 ft | 273 kts | 142° |
| 2026-04-22 11:55 | 25.55807 | 34.78131 | 6685 ft | 277 kts | 142° |
| 2026-04-22 11:55 | 25.54298 | 34.79385 | 6344 ft | 268 kts | 142° |
| 2026-04-22 11:55 | 25.52826 | 34.80606 | 6194 ft | 258 kts | 142° |
| 2026-04-22 11:55 | 25.51404 | 34.81780 | 6107 ft | 247 kts | 144° |
| 2026-04-22 11:56 | 25.49930 | 34.82711 | 6041 ft | 247 kts | 160° |
| 2026-04-22 11:56 | 25.48223 | 34.82889 | 5923 ft | 246 kts | 195° |
| 2026-04-22 11:56 | 25.46715 | 34.82045 | 5590 ft | 245 kts | 225° |
| 2026-04-22 11:56 | 25.45721 | 34.80557 | 5265 ft | 243 kts | 242° |
| 2026-04-22 11:57 | 25.44882 | 34.78904 | 4881 ft | 246 kts | 242° |
| 2026-04-22 11:57 | 25.44025 | 34.77266 | 4547 ft | 247 kts | 242° |
| 2026-04-22 11:57 | 25.43162 | 34.75642 | 4222 ft | 247 kts | 241° |
| 2026-04-22 11:57 | 25.42285 | 34.73994 | 3842 ft | 243 kts | 242° |
| 2026-04-22 11:58 | 25.41453 | 34.72425 | 3531 ft | 235 kts | 242° |
| 2026-04-22 11:58 | 25.40782 | 34.70797 | 3208 ft | 227 kts | 258° |
| 2026-04-22 11:58 | 25.40761 | 34.69147 | 2961 ft | 210 kts | 291° |
| 2026-04-22 11:58 | 25.41466 | 34.67802 | 2782 ft | 196 kts | 313° |
| 2026-04-22 11:59 | 25.42455 | 34.66820 | 2581 ft | 188 kts | 328° |
| 2026-04-22 11:59 | 25.43549 | 34.66117 | 2410 ft | 180 kts | 333° |
| 2026-04-22 11:59 | 25.44624 | 34.65470 | 2261 ft | 167 kts | 332° |
| 2026-04-22 11:59 | 25.45596 | 34.64858 | 2104 ft | 156 kts | 332° |
| 2026-04-22 12:00 | 25.46523 | 34.64262 | 2001 ft | 146 kts | 332° |
| 2026-04-22 12:00 | 25.47381 | 34.63713 | 1856 ft | 142 kts | 332° |
| 2026-04-22 12:00 | 25.48188 | 34.63197 | 1638 ft | 140 kts | 332° |
| 2026-04-22 12:00 | 25.49031 | 34.62655 | 1449 ft | 139 kts | 331° |
| 2026-04-22 12:01 | 25.49872 | 34.62112 | 1260 ft | 139 kts | 330° |
| 2026-04-22 12:01 | 25.50698 | 34.61581 | 1096 ft | 137 kts | 330° |
| 2026-04-22 12:01 | 25.51524 | 34.61052 | 910 ft | 136 kts | 330° |
| 2026-04-22 12:01 | 25.52343 | 34.60526 | 743 ft | 134 kts | 330° |
| 2026-04-22 12:02 | 25.53149 | 34.60000 | 570 ft | 134 kts | 330° |
| 2026-04-22 12:02 | 25.53952 | 34.59491 | 410 ft | 132 kts | 329° |
| 2026-04-22 12:02 | 25.54740 | 34.58992 | 270 ft | 129 kts | 330° |
| 2026-04-22 12:02 | 25.55404 | 34.58569 | 267 ft | 75 kts | 330° |
| 2026-04-22 12:03 | 25.55695 | 34.58384 | 270 ft | 39 kts | 329° |
| 2026-04-22 12:03 | 25.55921 | 34.58239 | 271 ft | 33 kts | 330° |
| 2026-04-22 12:03 | 25.56062 | 34.58177 | 270 ft | 13 kts | 1° |
| 2026-04-22 12:03 | 25.56105 | 34.58154 | 269 ft | 6 kts | 263° |
| 2026-04-22 12:04 | 25.56079 | 34.58143 | 270 ft | 5 kts | 162° |
| 2026-04-22 12:04 | 25.56040 | 34.58164 | 271 ft | 7 kts | 150° |
| 2026-04-22 12:04 | 25.55969 | 34.58208 | 271 ft | 17 kts | 150° |
| 2026-04-22 12:04 | 25.55852 | 34.58284 | 270 ft | 21 kts | 150° |
| 2026-04-22 12:05 | 25.55711 | 34.58373 | 270 ft | 24 kts | 151° |
| 2026-04-22 12:05 | 25.55553 | 34.58474 | 269 ft | 27 kts | 150° |
| 2026-04-22 12:05 | 25.55485 | 34.58569 | 267 ft | 12 kts | 63° |
| 2026-04-22 12:05 | 25.55524 | 34.58641 | 263 ft | 11 kts | 58° |
| 2026-04-22 12:06 | 25.55569 | 34.58723 | 258 ft | 13 kts | 59° |
| 2026-04-22 12:06 | 25.55615 | 34.58806 | 254 ft | 12 kts | 58° |
| 2026-04-22 12:06 | 25.55613 | 34.58899 | 251 ft | 14 kts | 144° |
| 2026-04-22 12:06 | 25.55533 | 34.58949 | 249 ft | 12 kts | 150° |
| 2026-04-22 12:07 | 25.55457 | 34.58998 | 248 ft | 10 kts | 150° |
| 2026-04-22 12:07 | 25.55452 | 34.59045 | 245 ft | 8 kts | 61° |
| 2026-04-22 12:07 | 25.55473 | 34.59088 | 244 ft | 3 kts | 61° |
| 2026-04-22 12:07 | 25.55478 | 34.59098 | 243 ft | 0 kts | 60° |